Spar Corvus — LAKK7 — position and weather

sailwx.info

Track history (hours):
 
Tides and Currents Weather Stations Pressure Air Temp Water Temp Dewpoint Dewpoint Depression Visibility Wind Speed Wind Dir Waves Ship Positions

Spar Corvus

Last reported at 2017-Oct-17 07:19 UTC. Time now 2017-Oct-18 18:27 UTC.
Position N 53°44' E 000°23'.

Length 190 m; draft 11.7 m.

Type: Cargo ship. MMSI: 259093000.

Date/timePositionNaut miles runAvg speedWind from/ knotsBaromVisibWave heightAir tempDewpointWater temp
2017-Oct-17 07:19N 53°44' E 000°23'2 0.1
2017-Oct-16 11:31N 53°44' E 000°26'1 8.0
2017-Oct-16 11:22N 53°44' E 000°28'410.1
2017-Oct-16 11:00N 53°44' E 000°34'612.1
2017-Oct-16 10:30N 53°45' E 000°44'612.8
2017-Oct-16 10:00N 53°48' E 000°54'712.9
2017-Oct-16 09:27N 53°50' E 001°06'613.7
2017-Oct-16 09:00N 53°50' E 001°16'1613.6
2017-Oct-16 07:47N 53°48' E 001°44'1013.1
2017-Oct-16 06:59N 53°46' E 002°01'712.8
2017-Oct-16 06:29N 53°45' E 002°12'54 9.5
2017-Oct-16 00:47N 52°53' E 002°41'414.0
2017-Oct-16 00:28N 52°49' E 002°41'814.2
2017-Oct-15 23:56N 52°41' E 002°41'614.4
2017-Oct-15 23:30N 52°35' E 002°41'714.4
2017-Oct-15 23:01N 52°28' E 002°41'814.3
2017-Oct-15 22:26N 52°20' E 002°41'614.1
2017-Oct-15 22:00N 52°14' E 002°40'713.9
2017-Oct-15 21:29N 52°07' E 002°39'713.6
2017-Oct-15 21:00N 52°00' E 002°39'712.6
2017-Oct-15 20:26N 51°53' E 002°37'812.9
2017-Oct-15 19:47N 51°45' E 002°34'413.2
2017-Oct-15 19:28N 51°42' E 002°29'812.7
2017-Oct-15 18:52N 51°36' E 002°21'512.6
2017-Oct-15 18:30N 51°33' E 002°16'612.3
2017-Oct-15 18:01N 51°28' E 002°09'612.3
2017-Oct-15 17:31N 51°24' E 002°03'611.9
2017-Oct-15 17:00N 51°19' E 001°57'611.8
2017-Oct-15 16:31N 51°14' E 001°51'611.7
2017-Oct-15 16:00N 51°10' E 001°45'611.8
2017-Oct-15 15:31N 51°05' E 001°39'611.9
2017-Oct-15 15:01N 51°01' E 001°33'1311.8
2017-Oct-15 13:57N 50°50' E 001°24'612.2
2017-Oct-15 13:30N 50°44' E 001°22'711.7
2017-Oct-15 12:53N 50°39' E 001°15'512.4
2017-Oct-15 12:31N 50°36' E 001°09'1512.3
2017-Oct-15 11:18N 50°28' E 000°50'1712.4
2017-Oct-15 09:58N 50°24' E 000°24'612.3
2017-Oct-15 09:31N 50°22' E 000°16'612.4
2017-Oct-15 09:00N 50°21' E 000°06'612.6
2017-Oct-15 08:30N 50°19' W 000°04'712.7
2017-Oct-15 07:57N 50°17' W 000°14'612.9
2017-Oct-15 07:28N 50°15' W 000°23'713.3
2017-Oct-15 06:58N 50°14' W 000°34'613.7
2017-Oct-15 06:30N 50°12' W 000°43'6914.9
2017-Oct-15 01:53N 49°54' W 002°27'513.6
2017-Oct-15 01:29N 49°53' W 002°35'613.3
2017-Oct-15 01:00N 49°51' W 002°44'613.0
2017-Oct-15 00:31N 49°49' W 002°54'612.7
2017-Oct-15 00:01N 49°48' W 003°03'612.5
2017-Oct-14 23:31N 49°46' W 003°13'612.4
2017-Oct-14 23:01N 49°45' W 003°22'612.3
2017-Oct-14 22:30N 49°43' W 003°31'612.0
2017-Oct-14 22:00N 49°41' W 003°40'612.0
2017-Oct-14 21:31N 49°39' W 003°49'611.8
2017-Oct-14 21:01N 49°38' W 003°58'611.8
2017-Oct-14 20:30N 49°37' W 004°07'611.8
2017-Oct-14 20:01N 49°35' W 004°15'611.1
2017-Oct-14 19:30N 49°34' W 004°24'611.3
2017-Oct-14 19:00N 49°32' W 004°32'611.3
2017-Oct-14 18:31N 49°31' W 004°40'611.1
2017-Oct-14 18:01N 49°30' W 004°49'611.5
2017-Oct-14 17:30N 49°28' W 004°57'611.5
2017-Oct-14 17:00N 49°27' W 005°06'611.7
2017-Oct-14 16:30N 49°25' W 005°15'611.4
2017-Oct-14 16:01N 49°24' W 005°23'611.5
2017-Oct-14 15:30N 49°22' W 005°31'611.7
2017-Oct-14 14:59N 49°21' W 005°41'611.7
2017-Oct-14 14:29N 49°19' W 005°49'611.8
2017-Oct-14 14:01N 49°18' W 005°58'612.3
2017-Oct-14 13:31N 49°16' W 006°07'812.5
2017-Oct-14 12:53N 49°14' W 006°18'511.2
2017-Oct-14 12:24N 49°13' W 006°26'3 8.5
2017-Oct-14 11:59N 49°12' W 006°31'2012.2
2017-Oct-14 10:24N 49°13' W 007°01'513.1
2017-Oct-14 10:01N 49°14' W 007°09'812.8
2017-Oct-14 09:24N 49°15' W 007°21'812.6
2017-Oct-14 08:47N 49°15' W 007°33'  
Track history (hours):
 
Tides and Currents Weather Stations Pressure Air Temp Water Temp Dewpoint Dewpoint Depression Visibility Wind Speed Wind Dir Waves Ship Positions

Spar Corvus

Last reported at 2017-Oct-17 07:19 UTC. Time now 2017-Oct-18 18:27 UTC.
Position N 53°44' E 000°23'.

Length 190 m; draft 11.7 m.

Type: Cargo ship. MMSI: 259093000.

Date/timePositionNaut miles runAvg speedWind from/ knotsBaromVisibWave heightAir tempDewpointWater temp
2017-Oct-17 07:19N 53°44' E 000°23'2 0.1
2017-Oct-16 11:31N 53°44' E 000°26'1 8.0
2017-Oct-16 11:22N 53°44' E 000°28'410.1
2017-Oct-16 11:00N 53°44' E 000°34'612.1
2017-Oct-16 10:30N 53°45' E 000°44'612.8
2017-Oct-16 10:00N 53°48' E 000°54'712.9
2017-Oct-16 09:27N 53°50' E 001°06'613.7
2017-Oct-16 09:00N 53°50' E 001°16'1613.6
2017-Oct-16 07:47N 53°48' E 001°44'1013.1
2017-Oct-16 06:59N 53°46' E 002°01'712.8
2017-Oct-16 06:29N 53°45' E 002°12'54 9.5
2017-Oct-16 00:47N 52°53' E 002°41'414.0
2017-Oct-16 00:28N 52°49' E 002°41'814.2
2017-Oct-15 23:56N 52°41' E 002°41'614.4
2017-Oct-15 23:30N 52°35' E 002°41'714.4
2017-Oct-15 23:01N 52°28' E 002°41'814.3
2017-Oct-15 22:26N 52°20' E 002°41'614.1
2017-Oct-15 22:00N 52°14' E 002°40'713.9
2017-Oct-15 21:29N 52°07' E 002°39'713.6
2017-Oct-15 21:00N 52°00' E 002°39'712.6
2017-Oct-15 20:26N 51°53' E 002°37'812.9
2017-Oct-15 19:47N 51°45' E 002°34'413.2
2017-Oct-15 19:28N 51°42' E 002°29'812.7
2017-Oct-15 18:52N 51°36' E 002°21'512.6
2017-Oct-15 18:30N 51°33' E 002°16'612.3
2017-Oct-15 18:01N 51°28' E 002°09'612.3
2017-Oct-15 17:31N 51°24' E 002°03'611.9
2017-Oct-15 17:00N 51°19' E 001°57'611.8
2017-Oct-15 16:31N 51°14' E 001°51'611.7
2017-Oct-15 16:00N 51°10' E 001°45'611.8
2017-Oct-15 15:31N 51°05' E 001°39'611.9
2017-Oct-15 15:01N 51°01' E 001°33'1311.8
2017-Oct-15 13:57N 50°50' E 001°24'612.2
2017-Oct-15 13:30N 50°44' E 001°22'711.7
2017-Oct-15 12:53N 50°39' E 001°15'512.4
2017-Oct-15 12:31N 50°36' E 001°09'1512.3
2017-Oct-15 11:18N 50°28' E 000°50'1712.4
2017-Oct-15 09:58N 50°24' E 000°24'612.3
2017-Oct-15 09:31N 50°22' E 000°16'612.4
2017-Oct-15 09:00N 50°21' E 000°06'612.6
2017-Oct-15 08:30N 50°19' W 000°04'712.7
2017-Oct-15 07:57N 50°17' W 000°14'612.9
2017-Oct-15 07:28N 50°15' W 000°23'713.3
2017-Oct-15 06:58N 50°14' W 000°34'613.7
2017-Oct-15 06:30N 50°12' W 000°43'6914.9
2017-Oct-15 01:53N 49°54' W 002°27'513.6
2017-Oct-15 01:29N 49°53' W 002°35'613.3
2017-Oct-15 01:00N 49°51' W 002°44'613.0
2017-Oct-15 00:31N 49°49' W 002°54'612.7
2017-Oct-15 00:01N 49°48' W 003°03'612.5
2017-Oct-14 23:31N 49°46' W 003°13'612.4
2017-Oct-14 23:01N 49°45' W 003°22'612.3
2017-Oct-14 22:30N 49°43' W 003°31'612.0
2017-Oct-14 22:00N 49°41' W 003°40'612.0
2017-Oct-14 21:31N 49°39' W 003°49'611.8
2017-Oct-14 21:01N 49°38' W 003°58'611.8
2017-Oct-14 20:30N 49°37' W 004°07'611.8
2017-Oct-14 20:01N 49°35' W 004°15'611.1
2017-Oct-14 19:30N 49°34' W 004°24'611.3
2017-Oct-14 19:00N 49°32' W 004°32'611.3
2017-Oct-14 18:31N 49°31' W 004°40'611.1
2017-Oct-14 18:01N 49°30' W 004°49'611.5
2017-Oct-14 17:30N 49°28' W 004°57'611.5
2017-Oct-14 17:00N 49°27' W 005°06'611.7
2017-Oct-14 16:30N 49°25' W 005°15'611.4
2017-Oct-14 16:01N 49°24' W 005°23'611.5
2017-Oct-14 15:30N 49°22' W 005°31'611.7
2017-Oct-14 14:59N 49°21' W 005°41'611.7
2017-Oct-14 14:29N 49°19' W 005°49'611.8
2017-Oct-14 14:01N 49°18' W 005°58'612.3
2017-Oct-14 13:31N 49°16' W 006°07'812.5
2017-Oct-14 12:53N 49°14' W 006°18'511.2
2017-Oct-14 12:24N 49°13' W 006°26'3 8.5
2017-Oct-14 11:59N 49°12' W 006°31'2012.2
2017-Oct-14 10:24N 49°13' W 007°01'513.1
2017-Oct-14 10:01N 49°14' W 007°09'812.8
2017-Oct-14 09:24N 49°15' W 007°21'812.6
2017-Oct-14 08:47N 49°15' W 007°33'  

Dump ship's entire track history